sensor_id;sensor_type;location;lat;lon;timestamp;P1;durP1;ratioP1;P2;durP2;ratioP2
79371;SDS011;68914;51.262;6.802;2023-06-22T00:00:51;7.32;;;3.05;;
79371;SDS011;68914;51.262;6.802;2023-06-22T00:01:51;6.28;;;3.00;;
79371;SDS011;68914;51.262;6.802;2023-06-22T00:02:52;6.80;;;2.93;;
79371;SDS011;68914;51.262;6.802;2023-06-22T00:03:53;5.90;;;2.75;;
79371;SDS011;68914;51.262;6.802;2023-06-22T00:04:53;8.37;;;3.10;;
79371;SDS011;68914;51.262;6.802;2023-06-22T00:05:54;6.25;;;3.05;;
79371;SDS011;68914;51.262;6.802;2023-06-22T00:06:54;7.33;;;2.80;;
79371;SDS011;68914;51.262;6.802;2023-06-22T00:07:55;7.55;;;3.00;;
79371;SDS011;68914;51.262;6.802;2023-06-22T00:08:56;6.67;;;2.70;;
79371;SDS011;68914;51.262;6.802;2023-06-22T00:09:56;6.05;;;2.92;;
79371;SDS011;68914;51.262;6.802;2023-06-22T00:10:57;6.93;;;2.93;;
79371;SDS011;68914;51.262;6.802;2023-06-22T00:11:58;6.95;;;3.00;;
79371;SDS011;68914;51.262;6.802;2023-06-22T00:12:58;7.40;;;2.97;;
79371;SDS011;68914;51.262;6.802;2023-06-22T00:13:59;6.43;;;3.20;;
79371;SDS011;68914;51.262;6.802;2023-06-22T00:15:00;6.15;;;3.03;;
79371;SDS011;68914;51.262;6.802;2023-06-22T00:16:00;6.33;;;3.07;;
79371;SDS011;68914;51.262;6.802;2023-06-22T00:17:01;7.18;;;3.20;;
79371;SDS011;68914;51.262;6.802;2023-06-22T00:18:02;8.63;;;3.03;;
79371;SDS011;68914;51.262;6.802;2023-06-22T00:19:03;5.97;;;2.93;;
79371;SDS011;68914;51.262;6.802;2023-06-22T00:20:03;7.90;;;3.30;;
79371;SDS011;68914;51.262;6.802;2023-06-22T00:21:06;6.68;;;3.05;;
79371;SDS011;68914;51.262;6.802;2023-06-22T00:22:07;6.55;;;2.80;;
79371;SDS011;68914;51.262;6.802;2023-06-22T00:23:07;7.17;;;3.00;;
79371;SDS011;68914;51.262;6.802;2023-06-22T00:24:08;7.40;;;3.28;;
79371;SDS011;68914;51.262;6.802;2023-06-22T00:25:09;6.73;;;3.10;;
79371;SDS011;68914;51.262;6.802;2023-06-22T00:26:10;7.53;;;3.00;;
79371;SDS011;68914;51.262;6.802;2023-06-22T00:27:11;6.75;;;2.90;;
79371;SDS011;68914;51.262;6.802;2023-06-22T00:28:12;6.95;;;3.17;;
79371;SDS011;68914;51.262;6.802;2023-06-22T00:29:13;5.70;;;3.00;;
79371;SDS011;68914;51.262;6.802;2023-06-22T00:30:15;6.50;;;3.10;;
79371;SDS011;68914;51.262;6.802;2023-06-22T00:31:16;5.78;;;2.70;;
79371;SDS011;68914;51.262;6.802;2023-06-22T00:32:17;7.87;;;3.07;;
79371;SDS011;68914;51.262;6.802;2023-06-22T00:33:21;6.72;;;3.05;;
79371;SDS011;68914;51.262;6.802;2023-06-22T00:34:22;7.90;;;3.35;;
79371;SDS011;68914;51.262;6.802;2023-06-22T00:35:22;6.97;;;3.13;;
79371;SDS011;68914;51.262;6.802;2023-06-22T00:36:23;6.85;;;2.90;;
79371;SDS011;68914;51.262;6.802;2023-06-22T00:37:25;7.18;;;3.17;;
79371;SDS011;68914;51.262;6.802;2023-06-22T00:38:27;6.05;;;3.00;;
79371;SDS011;68914;51.262;6.802;2023-06-22T00:39:27;6.03;;;2.87;;
79371;SDS011;68914;51.262;6.802;2023-06-22T00:40:28;6.20;;;3.10;;
79371;SDS011;68914;51.262;6.802;2023-06-22T00:41:32;6.75;;;3.20;;
79371;SDS011;68914;51.262;6.802;2023-06-22T00:42:33;7.17;;;3.20;;
79371;SDS011;68914;51.262;6.802;2023-06-22T00:43:34;6.00;;;3.17;;
79371;SDS011;68914;51.262;6.802;2023-06-22T00:44:36;6.88;;;3.03;;
79371;SDS011;68914;51.262;6.802;2023-06-22T00:45:37;6.87;;;3.23;;
79371;SDS011;68914;51.262;6.802;2023-06-22T00:46:38;7.70;;;3.10;;
79371;SDS011;68914;51.262;6.802;2023-06-22T00:47:39;7.68;;;3.17;;
79371;SDS011;68914;51.262;6.802;2023-06-22T00:48:40;7.18;;;3.00;;
79371;SDS011;68914;51.262;6.802;2023-06-22T00:49:44;8.20;;;3.80;;
79371;SDS011;68914;51.262;6.802;2023-06-22T00:50:47;6.80;;;3.60;;
79371;SDS011;68914;51.262;6.802;2023-06-22T00:51:51;7.50;;;3.40;;
79371;SDS011;68914;51.262;6.802;2023-06-22T00:52:53;7.72;;;3.72;;
79371;SDS011;68914;51.262;6.802;2023-06-22T00:53:58;7.68;;;3.47;;
79371;SDS011;68914;51.262;6.802;2023-06-22T00:54:59;9.88;;;3.95;;
79371;SDS011;68914;51.262;6.802;2023-06-22T00:56:02;6.78;;;3.70;;
79371;SDS011;68914;51.262;6.802;2023-06-22T00:57:03;7.43;;;3.72;;
79371;SDS011;68914;51.262;6.802;2023-06-22T00:58:05;7.55;;;3.60;;
79371;SDS011;68914;51.262;6.802;2023-06-22T00:59:10;7.35;;;3.92;;
79371;SDS011;68914;51.262;6.802;2023-06-22T01:00:12;8.00;;;3.95;;
79371;SDS011;68914;51.262;6.802;2023-06-22T01:01:13;7.60;;;4.00;;
79371;SDS011;68914;51.262;6.802;2023-06-22T01:02:14;7.93;;;4.00;;
79371;SDS011;68914;51.262;6.802;2023-06-22T01:03:15;7.13;;;3.75;;
79371;SDS011;68914;51.262;6.802;2023-06-22T01:04:17;9.57;;;4.18;;
79371;SDS011;68914;51.262;6.802;2023-06-22T01:05:19;8.38;;;4.13;;
79371;SDS011;68914;51.262;6.802;2023-06-22T01:06:29;8.02;;;3.92;;
79371;SDS011;68914;51.262;6.802;2023-06-22T01:07:42;7.40;;;4.17;;
79371;SDS011;68914;51.262;6.802;2023-06-22T01:08:51;9.05;;;4.07;;
79371;SDS011;68914;51.262;6.802;2023-06-22T01:12:20;8.32;;;4.60;;
79371;SDS011;68914;51.262;6.802;2023-06-22T01:13:24;8.05;;;4.20;;
79371;SDS011;68914;51.262;6.802;2023-06-22T01:15:43;8.35;;;4.20;;
79371;SDS011;68914;51.262;6.802;2023-06-22T01:16:46;7.90;;;4.70;;
79371;SDS011;68914;51.262;6.802;2023-06-22T01:17:50;8.25;;;4.30;;
79371;SDS011;68914;51.262;6.802;2023-06-22T01:18:55;8.57;;;4.40;;
79371;SDS011;68914;51.262;6.802;2023-06-22T01:19:58;8.43;;;4.30;;
79371;SDS011;68914;51.262;6.802;2023-06-22T01:21:00;8.60;;;4.75;;
79371;SDS011;68914;51.262;6.802;2023-06-22T01:22:03;8.55;;;4.78;;
79371;SDS011;68914;51.262;6.802;2023-06-22T01:23:10;8.95;;;4.90;;
79371;SDS011;68914;51.262;6.802;2023-06-22T01:24:27;11.05;;;4.78;;
79371;SDS011;68914;51.262;6.802;2023-06-22T01:25:35;9.77;;;4.90;;
79371;SDS011;68914;51.262;6.802;2023-06-22T01:26:51;7.82;;;4.45;;
79371;SDS011;68914;51.262;6.802;2023-06-22T01:29:16;8.35;;;4.72;;
79371;SDS011;68914;51.262;6.802;2023-06-22T01:30:19;8.37;;;4.80;;
79371;SDS011;68914;51.262;6.802;2023-06-22T01:31:24;8.07;;;4.50;;
79371;SDS011;68914;51.262;6.802;2023-06-22T01:32:30;8.88;;;4.63;;
79371;SDS011;68914;51.262;6.802;2023-06-22T01:33:33;9.38;;;5.03;;
79371;SDS011;68914;51.262;6.802;2023-06-22T01:34:37;8.88;;;4.75;;
79371;SDS011;68914;51.262;6.802;2023-06-22T01:35:40;9.15;;;5.28;;
79371;SDS011;68914;51.262;6.802;2023-06-22T01:36:42;8.40;;;4.80;;
79371;SDS011;68914;51.262;6.802;2023-06-22T01:37:43;9.05;;;4.90;;
79371;SDS011;68914;51.262;6.802;2023-06-22T01:38:45;8.50;;;5.00;;
79371;SDS011;68914;51.262;6.802;2023-06-22T01:39:47;8.30;;;4.70;;
79371;SDS011;68914;51.262;6.802;2023-06-22T01:40:49;9.53;;;5.30;;
79371;SDS011;68914;51.262;6.802;2023-06-22T01:41:51;9.32;;;5.32;;
79371;SDS011;68914;51.262;6.802;2023-06-22T01:42:53;9.35;;;5.53;;
79371;SDS011;68914;51.262;6.802;2023-06-22T01:43:55;9.40;;;5.10;;
79371;SDS011;68914;51.262;6.802;2023-06-22T01:44:56;9.15;;;5.20;;
79371;SDS011;68914;51.262;6.802;2023-06-22T01:46:01;8.82;;;5.00;;
79371;SDS011;68914;51.262;6.802;2023-06-22T01:47:03;10.27;;;5.75;;
79371;SDS011;68914;51.262;6.802;2023-06-22T01:48:04;10.32;;;5.70;;
79371;SDS011;68914;51.262;6.802;2023-06-22T01:49:06;9.40;;;5.25;;
79371;SDS011;68914;51.262;6.802;2023-06-22T01:50:07;8.85;;;5.35;;
79371;SDS011;68914;51.262;6.802;2023-06-22T01:51:09;9.17;;;5.30;;
79371;SDS011;68914;51.262;6.802;2023-06-22T01:52:10;9.23;;;5.53;;
79371;SDS011;68914;51.262;6.802;2023-06-22T01:53:11;10.15;;;5.68;;
79371;SDS011;68914;51.262;6.802;2023-06-22T01:54:12;11.20;;;5.50;;
79371;SDS011;68914;51.262;6.802;2023-06-22T01:55:13;10.07;;;5.67;;
79371;SDS011;68914;51.262;6.802;2023-06-22T01:56:16;8.55;;;5.10;;
79371;SDS011;68914;51.262;6.802;2023-06-22T01:57:17;9.30;;;5.38;;
79371;SDS011;68914;51.262;6.802;2023-06-22T01:58:26;9.30;;;5.47;;
79371;SDS011;68914;51.262;6.802;2023-06-22T02:02:12;10.32;;;5.85;;
79371;SDS011;68914;51.262;6.802;2023-06-22T02:03:18;10.10;;;6.13;;
79371;SDS011;68914;51.262;6.802;2023-06-22T02:04:24;9.05;;;5.72;;
79371;SDS011;68914;51.262;6.802;2023-06-22T02:05:35;10.32;;;5.75;;
79371;SDS011;68914;51.262;6.802;2023-06-22T02:06:39;10.53;;;5.30;;
79371;SDS011;68914;51.262;6.802;2023-06-22T02:08:07;8.40;;;5.70;;
79371;SDS011;68914;51.262;6.802;2023-06-22T02:09:12;10.45;;;5.95;;
79371;SDS011;68914;51.262;6.802;2023-06-22T02:10:16;10.63;;;6.63;;
79371;SDS011;68914;51.262;6.802;2023-06-22T02:11:20;9.63;;;6.30;;
79371;SDS011;68914;51.262;6.802;2023-06-22T02:12:24;11.48;;;6.38;;
79371;SDS011;68914;51.262;6.802;2023-06-22T02:13:28;10.65;;;6.30;;
79371;SDS011;68914;51.262;6.802;2023-06-22T02:14:28;8.57;;;5.57;;
79371;SDS011;68914;51.262;6.802;2023-06-22T02:15:30;10.32;;;6.32;;
79371;SDS011;68914;51.262;6.802;2023-06-22T02:16:30;12.07;;;6.40;;
79371;SDS011;68914;51.262;6.802;2023-06-22T02:17:33;11.18;;;6.25;;
79371;SDS011;68914;51.262;6.802;2023-06-22T02:18:34;9.30;;;6.10;;
79371;SDS011;68914;51.262;6.802;2023-06-22T02:19:36;9.63;;;6.10;;
79371;SDS011;68914;51.262;6.802;2023-06-22T02:20:38;9.98;;;5.93;;
79371;SDS011;68914;51.262;6.802;2023-06-22T02:21:39;10.48;;;6.32;;
79371;SDS011;68914;51.262;6.802;2023-06-22T02:22:40;10.27;;;6.20;;
79371;SDS011;68914;51.262;6.802;2023-06-22T02:23:45;11.55;;;6.45;;
79371;SDS011;68914;51.262;6.802;2023-06-22T02:24:46;12.65;;;6.60;;
79371;SDS011;68914;51.262;6.802;2023-06-22T02:25:46;10.05;;;6.10;;
79371;SDS011;68914;51.262;6.802;2023-06-22T02:26:47;12.03;;;6.60;;
79371;SDS011;68914;51.262;6.802;2023-06-22T02:27:48;10.45;;;6.10;;
79371;SDS011;68914;51.262;6.802;2023-06-22T02:28:51;9.52;;;6.00;;
79371;SDS011;68914;51.262;6.802;2023-06-22T02:29:51;11.13;;;6.40;;
79371;SDS011;68914;51.262;6.802;2023-06-22T02:30:52;11.23;;;6.50;;
79371;SDS011;68914;51.262;6.802;2023-06-22T02:31:53;9.27;;;6.25;;
79371;SDS011;68914;51.262;6.802;2023-06-22T02:32:54;10.52;;;6.43;;
79371;SDS011;68914;51.262;6.802;2023-06-22T02:33:58;11.48;;;6.57;;
79371;SDS011;68914;51.262;6.802;2023-06-22T02:35:00;10.18;;;6.93;;
79371;SDS011;68914;51.262;6.802;2023-06-22T02:36:04;11.55;;;6.88;;
79371;SDS011;68914;51.262;6.802;2023-06-22T02:37:05;11.87;;;6.70;;
79371;SDS011;68914;51.262;6.802;2023-06-22T02:38:06;11.20;;;6.80;;
79371;SDS011;68914;51.262;6.802;2023-06-22T02:39:08;11.75;;;7.22;;
79371;SDS011;68914;51.262;6.802;2023-06-22T02:40:11;10.27;;;7.07;;
79371;SDS011;68914;51.262;6.802;2023-06-22T02:41:14;12.48;;;7.40;;
79371;SDS011;68914;51.262;6.802;2023-06-22T02:42:18;11.88;;;7.20;;
79371;SDS011;68914;51.262;6.802;2023-06-22T02:43:20;12.82;;;7.55;;
79371;SDS011;68914;51.262;6.802;2023-06-22T02:44:21;11.60;;;7.57;;
79371;SDS011;68914;51.262;6.802;2023-06-22T02:45:22;12.35;;;7.15;;
79371;SDS011;68914;51.262;6.802;2023-06-22T02:46:23;12.82;;;7.57;;
79371;SDS011;68914;51.262;6.802;2023-06-22T02:47:23;24.30;;;17.17;;
79371;SDS011;68914;51.262;6.802;2023-06-22T02:48:24;47.72;;;32.53;;
79371;SDS011;68914;51.262;6.802;2023-06-22T02:49:25;36.63;;;26.83;;
79371;SDS011;68914;51.262;6.802;2023-06-22T02:50:26;14.57;;;8.87;;
79371;SDS011;68914;51.262;6.802;2023-06-22T02:51:27;28.17;;;18.40;;
79371;SDS011;68914;51.262;6.802;2023-06-22T02:52:28;15.68;;;10.25;;
79371;SDS011;68914;51.262;6.802;2023-06-22T02:53:29;13.53;;;8.97;;
79371;SDS011;68914;51.262;6.802;2023-06-22T02:54:30;12.60;;;7.95;;
79371;SDS011;68914;51.262;6.802;2023-06-22T02:55:30;13.30;;;8.30;;
79371;SDS011;68914;51.262;6.802;2023-06-22T02:56:33;14.43;;;9.27;;
79371;SDS011;68914;51.262;6.802;2023-06-22T02:57:35;12.45;;;7.43;;
79371;SDS011;68914;51.262;6.802;2023-06-22T02:58:36;10.97;;;6.87;;
79371;SDS011;68914;51.262;6.802;2023-06-22T02:59:40;11.65;;;7.53;;
79371;SDS011;68914;51.262;6.802;2023-06-22T03:00:44;11.30;;;7.63;;
79371;SDS011;68914;51.262;6.802;2023-06-22T03:01:44;11.40;;;7.93;;
79371;SDS011;68914;51.262;6.802;2023-06-22T03:02:58;11.25;;;7.45;;
79371;SDS011;68914;51.262;6.802;2023-06-22T03:03:59;10.57;;;6.80;;
79371;SDS011;68914;51.262;6.802;2023-06-22T03:04:59;11.90;;;7.60;;
79371;SDS011;68914;51.262;6.802;2023-06-22T03:06:02;13.52;;;8.38;;
79371;SDS011;68914;51.262;6.802;2023-06-22T03:07:03;11.17;;;7.30;;
79371;SDS011;68914;51.262;6.802;2023-06-22T03:08:05;13.35;;;7.78;;
79371;SDS011;68914;51.262;6.802;2023-06-22T03:09:08;10.50;;;7.22;;
79371;SDS011;68914;51.262;6.802;2023-06-22T03:10:10;12.80;;;7.60;;
79371;SDS011;68914;51.262;6.802;2023-06-22T03:11:12;11.55;;;7.25;;
79371;SDS011;68914;51.262;6.802;2023-06-22T03:12:12;11.10;;;7.10;;
79371;SDS011;68914;51.262;6.802;2023-06-22T03:13:23;11.48;;;7.80;;
79371;SDS011;68914;51.262;6.802;2023-06-22T03:14:24;11.68;;;7.68;;
79371;SDS011;68914;51.262;6.802;2023-06-22T03:15:26;12.15;;;7.47;;
79371;SDS011;68914;51.262;6.802;2023-06-22T03:16:29;12.35;;;7.50;;
79371;SDS011;68914;51.262;6.802;2023-06-22T03:17:31;11.10;;;7.22;;
79371;SDS011;68914;51.262;6.802;2023-06-22T03:18:31;12.47;;;7.80;;
79371;SDS011;68914;51.262;6.802;2023-06-22T03:19:32;11.52;;;7.22;;
79371;SDS011;68914;51.262;6.802;2023-06-22T03:20:33;12.30;;;7.30;;
79371;SDS011;68914;51.262;6.802;2023-06-22T03:21:33;13.13;;;7.95;;
79371;SDS011;68914;51.262;6.802;2023-06-22T03:22:35;10.65;;;7.30;;
79371;SDS011;68914;51.262;6.802;2023-06-22T03:23:36;20.27;;;12.95;;
79371;SDS011;68914;51.262;6.802;2023-06-22T03:24:37;28.67;;;18.77;;
79371;SDS011;68914;51.262;6.802;2023-06-22T03:25:39;13.47;;;8.00;;
79371;SDS011;68914;51.262;6.802;2023-06-22T03:26:41;21.90;;;14.43;;
79371;SDS011;68914;51.262;6.802;2023-06-22T03:27:42;23.02;;;16.20;;
79371;SDS011;68914;51.262;6.802;2023-06-22T03:28:44;32.72;;;22.15;;
79371;SDS011;68914;51.262;6.802;2023-06-22T03:29:45;23.67;;;17.38;;
79371;SDS011;68914;51.262;6.802;2023-06-22T03:30:46;14.23;;;9.50;;
79371;SDS011;68914;51.262;6.802;2023-06-22T03:31:47;14.77;;;9.02;;
79371;SDS011;68914;51.262;6.802;2023-06-22T03:32:48;38.72;;;27.42;;
79371;SDS011;68914;51.262;6.802;2023-06-22T03:33:49;24.13;;;17.00;;
79371;SDS011;68914;51.262;6.802;2023-06-22T03:34:50;25.27;;;17.92;;
79371;SDS011;68914;51.262;6.802;2023-06-22T03:35:51;16.85;;;11.43;;
79371;SDS011;68914;51.262;6.802;2023-06-22T03:36:54;20.23;;;12.63;;
79371;SDS011;68914;51.262;6.802;2023-06-22T03:37:55;15.33;;;10.87;;
79371;SDS011;68914;51.262;6.802;2023-06-22T03:38:55;13.13;;;8.82;;
79371;SDS011;68914;51.262;6.802;2023-06-22T03:39:57;14.60;;;8.60;;
79371;SDS011;68914;51.262;6.802;2023-06-22T03:40:57;15.03;;;9.53;;
79371;SDS011;68914;51.262;6.802;2023-06-22T03:41:59;26.20;;;18.30;;
79371;SDS011;68914;51.262;6.802;2023-06-22T03:43:00;16.50;;;10.88;;
79371;SDS011;68914;51.262;6.802;2023-06-22T03:44:03;40.22;;;28.55;;
79371;SDS011;68914;51.262;6.802;2023-06-22T03:45:04;15.25;;;9.63;;
79371;SDS011;68914;51.262;6.802;2023-06-22T03:46:06;28.80;;;20.45;;
79371;SDS011;68914;51.262;6.802;2023-06-22T03:47:07;15.43;;;10.07;;
79371;SDS011;68914;51.262;6.802;2023-06-22T03:48:07;15.90;;;10.45;;
79371;SDS011;68914;51.262;6.802;2023-06-22T03:49:11;14.80;;;9.82;;
79371;SDS011;68914;51.262;6.802;2023-06-22T03:50:11;15.57;;;10.87;;
79371;SDS011;68914;51.262;6.802;2023-06-22T03:51:14;22.58;;;13.77;;
79371;SDS011;68914;51.262;6.802;2023-06-22T03:52:14;30.07;;;21.20;;
79371;SDS011;68914;51.262;6.802;2023-06-22T03:53:15;14.73;;;9.87;;
79371;SDS011;68914;51.262;6.802;2023-06-22T03:54:15;21.13;;;14.75;;
79371;SDS011;68914;51.262;6.802;2023-06-22T03:55:16;20.90;;;12.73;;
79371;SDS011;68914;51.262;6.802;2023-06-22T03:56:17;40.78;;;27.17;;
79371;SDS011;68914;51.262;6.802;2023-06-22T03:57:20;34.25;;;22.67;;
79371;SDS011;68914;51.262;6.802;2023-06-22T03:58:21;21.57;;;13.83;;
79371;SDS011;68914;51.262;6.802;2023-06-22T03:59:22;33.17;;;19.58;;
79371;SDS011;68914;51.262;6.802;2023-06-22T04:00:23;17.08;;;11.95;;
79371;SDS011;68914;51.262;6.802;2023-06-22T04:01:24;14.80;;;9.77;;
79371;SDS011;68914;51.262;6.802;2023-06-22T04:02:24;28.53;;;20.77;;
79371;SDS011;68914;51.262;6.802;2023-06-22T04:03:26;20.92;;;15.52;;
79371;SDS011;68914;51.262;6.802;2023-06-22T04:04:26;14.80;;;9.48;;
79371;SDS011;68914;51.262;6.802;2023-06-22T04:05:28;14.32;;;9.98;;
79371;SDS011;68914;51.262;6.802;2023-06-22T04:06:28;48.57;;;31.93;;
79371;SDS011;68914;51.262;6.802;2023-06-22T04:07:29;44.40;;;29.98;;
79371;SDS011;68914;51.262;6.802;2023-06-22T04:08:30;34.27;;;24.53;;
79371;SDS011;68914;51.262;6.802;2023-06-22T04:09:30;15.88;;;10.63;;
79371;SDS011;68914;51.262;6.802;2023-06-22T04:10:31;12.80;;;8.87;;
79371;SDS011;68914;51.262;6.802;2023-06-22T04:11:31;22.88;;;13.82;;
79371;SDS011;68914;51.262;6.802;2023-06-22T04:12:32;20.93;;;14.50;;
79371;SDS011;68914;51.262;6.802;2023-06-22T04:13:33;29.50;;;20.40;;
79371;SDS011;68914;51.262;6.802;2023-06-22T04:14:33;30.60;;;21.63;;
79371;SDS011;68914;51.262;6.802;2023-06-22T04:15:34;36.15;;;24.98;;
79371;SDS011;68914;51.262;6.802;2023-06-22T04:16:35;57.93;;;38.30;;
79371;SDS011;68914;51.262;6.802;2023-06-22T04:17:35;16.37;;;10.57;;
79371;SDS011;68914;51.262;6.802;2023-06-22T04:18:36;27.70;;;19.10;;
79371;SDS011;68914;51.262;6.802;2023-06-22T04:19:36;21.60;;;13.73;;
79371;SDS011;68914;51.262;6.802;2023-06-22T04:20:37;21.80;;;14.23;;
79371;SDS011;68914;51.262;6.802;2023-06-22T04:21:37;26.57;;;17.40;;
79371;SDS011;68914;51.262;6.802;2023-06-22T04:22:38;23.30;;;14.80;;
79371;SDS011;68914;51.262;6.802;2023-06-22T04:23:39;17.73;;;12.23;;
79371;SDS011;68914;51.262;6.802;2023-06-22T04:24:39;19.75;;;13.95;;
79371;SDS011;68914;51.262;6.802;2023-06-22T04:25:40;27.33;;;18.30;;
79371;SDS011;68914;51.262;6.802;2023-06-22T04:26:40;15.32;;;10.27;;
79371;SDS011;68914;51.262;6.802;2023-06-22T04:27:42;14.75;;;9.68;;
79371;SDS011;68914;51.262;6.802;2023-06-22T04:28:43;16.83;;;10.37;;
79371;SDS011;68914;51.262;6.802;2023-06-22T04:29:43;17.38;;;10.98;;
79371;SDS011;68914;51.262;6.802;2023-06-22T04:30:49;18.20;;;12.40;;
79371;SDS011;68914;51.262;6.802;2023-06-22T04:31:52;12.13;;;8.00;;
79371;SDS011;68914;51.262;6.802;2023-06-22T04:32:53;12.93;;;8.57;;
79371;SDS011;68914;51.262;6.802;2023-06-22T04:33:57;13.23;;;8.18;;
79371;SDS011;68914;51.262;6.802;2023-06-22T04:35:06;12.88;;;8.23;;
79371;SDS011;68914;51.262;6.802;2023-06-22T04:36:07;14.10;;;8.60;;
79371;SDS011;68914;51.262;6.802;2023-06-22T04:37:08;13.00;;;8.33;;
79371;SDS011;68914;51.262;6.802;2023-06-22T04:38:08;14.18;;;8.70;;
79371;SDS011;68914;51.262;6.802;2023-06-22T04:39:10;14.15;;;8.60;;
79371;SDS011;68914;51.262;6.802;2023-06-22T04:40:11;13.55;;;8.13;;
79371;SDS011;68914;51.262;6.802;2023-06-22T04:41:14;12.95;;;7.95;;
79371;SDS011;68914;51.262;6.802;2023-06-22T04:42:25;14.57;;;8.32;;
79371;SDS011;68914;51.262;6.802;2023-06-22T04:43:26;14.67;;;8.27;;
79371;SDS011;68914;51.262;6.802;2023-06-22T04:44:30;13.90;;;8.25;;
79371;SDS011;68914;51.262;6.802;2023-06-22T04:45:31;13.90;;;8.60;;
79371;SDS011;68914;51.262;6.802;2023-06-22T04:46:32;12.70;;;8.35;;
79371;SDS011;68914;51.262;6.802;2023-06-22T04:47:38;13.82;;;8.38;;
79371;SDS011;68914;51.262;6.802;2023-06-22T04:48:39;13.63;;;8.38;;
79371;SDS011;68914;51.262;6.802;2023-06-22T04:49:40;13.27;;;8.20;;
79371;SDS011;68914;51.262;6.802;2023-06-22T04:50:43;14.45;;;9.30;;
79371;SDS011;68914;51.262;6.802;2023-06-22T04:51:45;13.13;;;8.30;;
79371;SDS011;68914;51.262;6.802;2023-06-22T04:52:45;17.53;;;9.57;;
79371;SDS011;68914;51.262;6.802;2023-06-22T04:53:46;16.00;;;8.60;;
79371;SDS011;68914;51.262;6.802;2023-06-22T04:54:47;12.30;;;8.57;;
79371;SDS011;68914;51.262;6.802;2023-06-22T04:55:55;13.05;;;8.93;;
79371;SDS011;68914;51.262;6.802;2023-06-22T04:56:56;14.60;;;9.10;;
79371;SDS011;68914;51.262;6.802;2023-06-22T04:57:57;12.80;;;8.70;;
79371;SDS011;68914;51.262;6.802;2023-06-22T04:59:04;12.57;;;7.93;;
79371;SDS011;68914;51.262;6.802;2023-06-22T05:00:05;10.53;;;7.37;;
79371;SDS011;68914;51.262;6.802;2023-06-22T05:01:12;13.05;;;8.30;;
79371;SDS011;68914;51.262;6.802;2023-06-22T05:02:13;10.93;;;6.80;;
79371;SDS011;68914;51.262;6.802;2023-06-22T05:03:14;12.60;;;7.80;;
79371;SDS011;68914;51.262;6.802;2023-06-22T05:04:18;12.90;;;9.20;;
79371;SDS011;68914;51.262;6.802;2023-06-22T05:05:19;12.25;;;7.60;;
79371;SDS011;68914;51.262;6.802;2023-06-22T05:06:20;14.23;;;7.67;;
79371;SDS011;68914;51.262;6.802;2023-06-22T05:07:20;11.70;;;7.50;;
79371;SDS011;68914;51.262;6.802;2023-06-22T05:08:21;12.35;;;8.70;;
79371;SDS011;68914;51.262;6.802;2023-06-22T05:09:26;14.32;;;9.13;;
79371;SDS011;68914;51.262;6.802;2023-06-22T05:10:27;12.73;;;8.93;;
79371;SDS011;68914;51.262;6.802;2023-06-22T05:11:28;13.05;;;8.50;;
79371;SDS011;68914;51.262;6.802;2023-06-22T05:12:29;13.40;;;7.78;;
79371;SDS011;68914;51.262;6.802;2023-06-22T05:13:31;14.60;;;8.85;;
79371;SDS011;68914;51.262;6.802;2023-06-22T05:14:34;15.10;;;8.40;;
79371;SDS011;68914;51.262;6.802;2023-06-22T05:15:34;16.80;;;9.13;;
79371;SDS011;68914;51.262;6.802;2023-06-22T05:16:43;14.68;;;8.88;;
79371;SDS011;68914;51.262;6.802;2023-06-22T05:17:45;14.13;;;8.63;;
79371;SDS011;68914;51.262;6.802;2023-06-22T05:18:45;13.05;;;8.95;;
79371;SDS011;68914;51.262;6.802;2023-06-22T05:19:46;13.07;;;8.47;;
79371;SDS011;68914;51.262;6.802;2023-06-22T05:20:49;14.05;;;8.85;;
79371;SDS011;68914;51.262;6.802;2023-06-22T05:21:50;13.95;;;9.07;;
79371;SDS011;68914;51.262;6.802;2023-06-22T05:22:51;14.27;;;8.73;;
79371;SDS011;68914;51.262;6.802;2023-06-22T05:23:52;12.70;;;8.70;;
79371;SDS011;68914;51.262;6.802;2023-06-22T05:24:53;12.65;;;8.82;;
79371;SDS011;68914;51.262;6.802;2023-06-22T05:25:54;14.50;;;8.53;;
79371;SDS011;68914;51.262;6.802;2023-06-22T05:26:55;13.55;;;8.95;;
79371;SDS011;68914;51.262;6.802;2023-06-22T05:27:55;13.00;;;8.77;;
79371;SDS011;68914;51.262;6.802;2023-06-22T05:28:56;13.20;;;8.90;;
79371;SDS011;68914;51.262;6.802;2023-06-22T05:29:57;13.57;;;8.20;;
79371;SDS011;68914;51.262;6.802;2023-06-22T05:30:58;12.77;;;8.52;;
79371;SDS011;68914;51.262;6.802;2023-06-22T05:31:59;14.87;;;9.37;;
79371;SDS011;68914;51.262;6.802;2023-06-22T05:32:59;16.27;;;9.02;;
79371;SDS011;68914;51.262;6.802;2023-06-22T05:34:00;12.60;;;8.73;;
79371;SDS011;68914;51.262;6.802;2023-06-22T05:35:01;12.25;;;8.30;;
79371;SDS011;68914;51.262;6.802;2023-06-22T05:36:02;13.90;;;8.60;;
79371;SDS011;68914;51.262;6.802;2023-06-22T05:37:03;12.70;;;8.27;;
79371;SDS011;68914;51.262;6.802;2023-06-22T05:38:04;13.35;;;8.25;;
79371;SDS011;68914;51.262;6.802;2023-06-22T05:39:11;13.32;;;9.00;;
79371;SDS011;68914;51.262;6.802;2023-06-22T05:40:16;11.95;;;8.20;;
79371;SDS011;68914;51.262;6.802;2023-06-22T05:41:16;14.90;;;9.60;;
79371;SDS011;68914;51.262;6.802;2023-06-22T05:42:17;13.90;;;9.00;;
79371;SDS011;68914;51.262;6.802;2023-06-22T05:43:18;15.70;;;9.38;;
79371;SDS011;68914;51.262;6.802;2023-06-22T05:44:18;15.13;;;9.70;;
79371;SDS011;68914;51.262;6.802;2023-06-22T05:45:19;15.38;;;8.88;;
79371;SDS011;68914;51.262;6.802;2023-06-22T05:46:20;14.90;;;8.67;;
79371;SDS011;68914;51.262;6.802;2023-06-22T05:47:20;14.75;;;9.52;;
79371;SDS011;68914;51.262;6.802;2023-06-22T05:48:23;13.00;;;8.55;;
79371;SDS011;68914;51.262;6.802;2023-06-22T05:49:23;15.23;;;8.93;;
79371;SDS011;68914;51.262;6.802;2023-06-22T05:50:29;16.45;;;9.13;;
79371;SDS011;68914;51.262;6.802;2023-06-22T05:51:30;17.38;;;9.07;;
79371;SDS011;68914;51.262;6.802;2023-06-22T05:52:31;12.90;;;9.00;;
79371;SDS011;68914;51.262;6.802;2023-06-22T05:53:31;15.25;;;9.13;;
79371;SDS011;68914;51.262;6.802;2023-06-22T05:54:32;14.63;;;9.30;;
79371;SDS011;68914;51.262;6.802;2023-06-22T05:55:32;15.40;;;8.85;;
79371;SDS011;68914;51.262;6.802;2023-06-22T05:56:33;15.03;;;9.57;;
79371;SDS011;68914;51.262;6.802;2023-06-22T05:57:33;15.48;;;9.60;;
79371;SDS011;68914;51.262;6.802;2023-06-22T05:58:35;14.37;;;9.50;;
79371;SDS011;68914;51.262;6.802;2023-06-22T05:59:35;15.07;;;9.32;;
79371;SDS011;68914;51.262;6.802;2023-06-22T06:00:36;13.55;;;9.38;;
79371;SDS011;68914;51.262;6.802;2023-06-22T06:01:37;13.90;;;9.10;;
79371;SDS011;68914;51.262;6.802;2023-06-22T06:02:37;14.60;;;9.43;;
79371;SDS011;68914;51.262;6.802;2023-06-22T06:03:43;13.65;;;9.13;;
79371;SDS011;68914;51.262;6.802;2023-06-22T06:04:44;14.30;;;9.80;;
79371;SDS011;68914;51.262;6.802;2023-06-22T06:05:45;14.60;;;9.90;;
79371;SDS011;68914;51.262;6.802;2023-06-22T06:06:45;16.90;;;9.40;;
79371;SDS011;68914;51.262;6.802;2023-06-22T06:07:47;15.25;;;9.70;;
79371;SDS011;68914;51.262;6.802;2023-06-22T06:08:47;15.52;;;9.57;;
79371;SDS011;68914;51.262;6.802;2023-06-22T06:09:48;15.57;;;9.33;;
79371;SDS011;68914;51.262;6.802;2023-06-22T06:10:49;16.05;;;9.65;;
79371;SDS011;68914;51.262;6.802;2023-06-22T06:11:49;15.30;;;9.47;;
79371;SDS011;68914;51.262;6.802;2023-06-22T06:12:50;15.70;;;9.65;;
79371;SDS011;68914;51.262;6.802;2023-06-22T06:13:51;17.52;;;9.80;;
79371;SDS011;68914;51.262;6.802;2023-06-22T06:14:51;14.73;;;9.63;;
79371;SDS011;68914;51.262;6.802;2023-06-22T06:15:53;13.75;;;9.23;;
79371;SDS011;68914;51.262;6.802;2023-06-22T06:16:55;14.25;;;9.80;;